sensor_id;sensor_type;location;lat;lon;timestamp;pressure;altitude;pressure_sealevel;temperature;humidity
70437;BME280;57877;39.750;-104.894;2023-05-10T00:00:08;83224.97;;;25.87;18.17
70437;BME280;57877;39.750;-104.894;2023-05-10T00:02:33;83220.26;;;26.44;18.40
70437;BME280;57877;39.750;-104.894;2023-05-10T00:04:59;83221.67;;;25.65;18.65
70437;BME280;57877;39.750;-104.894;2023-05-10T00:07:25;83218.70;;;25.46;19.05
70437;BME280;57877;39.750;-104.894;2023-05-10T00:09:51;83225.84;;;24.78;20.23
70437;BME280;57877;39.750;-104.894;2023-05-10T00:12:17;83225.85;;;24.99;20.27
70437;BME280;57877;39.750;-104.894;2023-05-10T00:14:43;83227.44;;;24.39;20.80
70437;BME280;57877;39.750;-104.894;2023-05-10T00:17:09;83232.51;;;24.88;20.41
70437;BME280;57877;39.750;-104.894;2023-05-10T00:19:35;83243.23;;;24.59;21.08
70437;BME280;57877;39.750;-104.894;2023-05-10T00:22:01;83243.46;;;24.58;21.44
70437;BME280;57877;39.750;-104.894;2023-05-10T00:24:27;83245.08;;;23.81;22.36
70437;BME280;57877;39.750;-104.894;2023-05-10T00:26:53;83237.86;;;23.59;23.11
70437;BME280;57877;39.750;-104.894;2023-05-10T00:29:18;83215.82;;;23.73;25.76
70437;BME280;57877;39.750;-104.894;2023-05-10T00:31:44;83199.23;;;22.48;28.23
70437;BME280;57877;39.750;-104.894;2023-05-10T00:34:10;83197.78;;;23.06;28.92
70437;BME280;57877;39.750;-104.894;2023-05-10T00:36:36;83204.35;;;22.36;27.28
70437;BME280;57877;39.750;-104.894;2023-05-10T00:39:02;83202.38;;;22.38;25.73
70437;BME280;57877;39.750;-104.894;2023-05-10T00:41:28;83205.87;;;22.80;24.89
70437;BME280;57877;39.750;-104.894;2023-05-10T00:43:54;83217.75;;;22.87;24.66
70437;BME280;57877;39.750;-104.894;2023-05-10T00:46:21;83234.68;;;23.45;23.96
70437;BME280;57877;39.750;-104.894;2023-05-10T00:48:46;83244.61;;;23.50;23.53
70437;BME280;57877;39.750;-104.894;2023-05-10T00:51:13;83255.66;;;23.83;23.12
70437;BME280;57877;39.750;-104.894;2023-05-10T00:53:38;83275.63;;;23.60;23.02
70437;BME280;57877;39.750;-104.894;2023-05-10T00:56:04;83291.77;;;22.84;25.91
70437;BME280;57877;39.750;-104.894;2023-05-10T00:58:30;83288.77;;;21.41;28.32
70437;BME280;57877;39.750;-104.894;2023-05-10T01:00:56;83289.76;;;20.72;30.31
70437;BME280;57877;39.750;-104.894;2023-05-10T01:03:22;83294.43;;;21.12;29.48
70437;BME280;57877;39.750;-104.894;2023-05-10T01:05:49;83282.19;;;20.49;30.47
70437;BME280;57877;39.750;-104.894;2023-05-10T01:08:14;83277.40;;;19.89;31.37
70437;BME280;57877;39.750;-104.894;2023-05-10T01:10:40;83276.72;;;19.82;32.14
70437;BME280;57877;39.750;-104.894;2023-05-10T01:13:06;83275.80;;;20.41;31.18
70437;BME280;57877;39.750;-104.894;2023-05-10T01:15:32;83270.16;;;20.21;30.82
70437;BME280;57877;39.750;-104.894;2023-05-10T01:17:58;83269.50;;;20.69;29.43
70437;BME280;57877;39.750;-104.894;2023-05-10T01:20:24;83270.87;;;20.12;30.77
70437;BME280;57877;39.750;-104.894;2023-05-10T01:25:32;83281.93;;;19.11;32.45
70437;BME280;57877;39.750;-104.894;2023-05-10T01:27:57;83280.96;;;19.17;32.54
70437;BME280;57877;39.750;-104.894;2023-05-10T01:32:39;83283.16;;;19.04;32.53
70437;BME280;57877;39.750;-104.894;2023-05-10T01:35:04;83279.08;;;19.31;31.34
70437;BME280;57877;39.750;-104.894;2023-05-10T01:37:33;83283.08;;;19.01;31.26
70437;BME280;57877;39.750;-104.894;2023-05-10T01:40:00;83288.56;;;19.11;31.46
70437;BME280;57877;39.750;-104.894;2023-05-10T01:42:21;83294.78;;;18.67;32.46
70437;BME280;57877;39.750;-104.894;2023-05-10T01:44:49;83295.70;;;18.80;32.82
70437;BME280;57877;39.750;-104.894;2023-05-10T01:47:12;83300.25;;;18.24;33.73
70437;BME280;57877;39.750;-104.894;2023-05-10T01:49:41;83302.74;;;18.59;32.89
70437;BME280;57877;39.750;-104.894;2023-05-10T01:52:09;83307.44;;;18.47;33.15
70437;BME280;57877;39.750;-104.894;2023-05-10T01:54:28;83309.44;;;19.42;31.44
70437;BME280;57877;39.750;-104.894;2023-05-10T01:56:58;83312.92;;;18.66;33.32
70437;BME280;57877;39.750;-104.894;2023-05-10T01:59:20;83310.90;;;18.23;33.21
70437;BME280;57877;39.750;-104.894;2023-05-10T02:01:46;83314.01;;;18.07;33.43
70437;BME280;57877;39.750;-104.894;2023-05-10T02:04:14;83319.88;;;18.80;32.39
70437;BME280;57877;39.750;-104.894;2023-05-10T02:06:39;83319.46;;;19.18;31.79
70437;BME280;57877;39.750;-104.894;2023-05-10T02:09:03;83319.68;;;18.85;31.61
70437;BME280;57877;39.750;-104.894;2023-05-10T02:11:29;83320.27;;;18.92;31.23
70437;BME280;57877;39.750;-104.894;2023-05-10T02:13:56;83324.07;;;19.09;30.87
70437;BME280;57877;39.750;-104.894;2023-05-10T02:16:25;83330.55;;;19.50;30.17
70437;BME280;57877;39.750;-104.894;2023-05-10T02:18:48;83330.99;;;19.29;30.85
70437;BME280;57877;39.750;-104.894;2023-05-10T02:21:13;83335.44;;;19.02;30.90
70437;BME280;57877;39.750;-104.894;2023-05-10T02:23:39;83338.21;;;19.31;29.64
70437;BME280;57877;39.750;-104.894;2023-05-10T02:26:06;83345.12;;;19.56;29.54
70437;BME280;57877;39.750;-104.894;2023-05-10T02:28:32;83350.48;;;19.51;29.95
70437;BME280;57877;39.750;-104.894;2023-05-10T02:30:58;83349.48;;;19.30;31.55
70437;BME280;57877;39.750;-104.894;2023-05-10T02:33:24;83350.13;;;18.70;31.86
70437;BME280;57877;39.750;-104.894;2023-05-10T02:35:49;83354.92;;;19.25;31.64
70437;BME280;57877;39.750;-104.894;2023-05-10T02:38:15;83358.75;;;19.58;31.49
70437;BME280;57877;39.750;-104.894;2023-05-10T02:40:41;83363.88;;;19.60;30.70
70437;BME280;57877;39.750;-104.894;2023-05-10T02:43:10;83368.33;;;19.58;30.36
70437;BME280;57877;39.750;-104.894;2023-05-10T02:45:34;83374.63;;;19.07;30.29
70437;BME280;57877;39.750;-104.894;2023-05-10T02:47:59;83372.40;;;18.92;30.29
70437;BME280;57877;39.750;-104.894;2023-05-10T02:50:27;83371.19;;;18.96;30.60
70437;BME280;57877;39.750;-104.894;2023-05-10T02:52:51;83370.80;;;18.94;30.25
70437;BME280;57877;39.750;-104.894;2023-05-10T02:55:16;83377.86;;;19.06;30.38
70437;BME280;57877;39.750;-104.894;2023-05-10T02:57:45;83385.30;;;18.93;31.40
70437;BME280;57877;39.750;-104.894;2023-05-10T03:00:07;83390.14;;;19.01;31.52
70437;BME280;57877;39.750;-104.894;2023-05-10T03:02:31;83390.48;;;19.17;31.49
70437;BME280;57877;39.750;-104.894;2023-05-10T03:04:57;83398.25;;;19.38;31.49
70437;BME280;57877;39.750;-104.894;2023-05-10T03:07:23;83400.97;;;19.10;31.91
70437;BME280;57877;39.750;-104.894;2023-05-10T03:09:49;83401.67;;;19.33;31.17
70437;BME280;57877;39.750;-104.894;2023-05-10T03:12:21;83404.96;;;19.52;31.50
70437;BME280;57877;39.750;-104.894;2023-05-10T03:14:52;83409.10;;;19.08;32.41
70437;BME280;57877;39.750;-104.894;2023-05-10T03:17:09;83409.11;;;18.46;33.51
70437;BME280;57877;39.750;-104.894;2023-05-10T03:19:37;83406.35;;;18.57;34.14
70437;BME280;57877;39.750;-104.894;2023-05-10T03:22:02;83407.44;;;18.16;34.46
70437;BME280;57877;39.750;-104.894;2023-05-10T03:24:26;83409.36;;;18.43;34.55
70437;BME280;57877;39.750;-104.894;2023-05-10T03:26:49;83408.16;;;17.75;35.73
70437;BME280;57877;39.750;-104.894;2023-05-10T03:29:15;83416.17;;;18.93;34.11
70437;BME280;57877;39.750;-104.894;2023-05-10T03:31:40;83415.04;;;18.05;35.26
70437;BME280;57877;39.750;-104.894;2023-05-10T03:34:04;83428.29;;;17.99;35.11
70437;BME280;57877;39.750;-104.894;2023-05-10T03:36:30;83425.63;;;17.87;35.83
70437;BME280;57877;39.750;-104.894;2023-05-10T03:38:56;83431.93;;;17.91;35.81
70437;BME280;57877;39.750;-104.894;2023-05-10T03:41:22;83438.01;;;17.92;36.06
70437;BME280;57877;39.750;-104.894;2023-05-10T03:43:48;83445.96;;;18.16;35.49
70437;BME280;57877;39.750;-104.894;2023-05-10T03:46:13;83449.31;;;17.35;37.16
70437;BME280;57877;39.750;-104.894;2023-05-10T03:48:38;83451.81;;;17.45;37.10
70437;BME280;57877;39.750;-104.894;2023-05-10T03:51:04;83451.20;;;17.89;36.48
70437;BME280;57877;39.750;-104.894;2023-05-10T03:53:30;83456.01;;;18.21;35.78
70437;BME280;57877;39.750;-104.894;2023-05-10T03:55:56;83459.47;;;18.06;36.05
70437;BME280;57877;39.750;-104.894;2023-05-10T03:58:22;83461.66;;;17.62;36.73
70437;BME280;57877;39.750;-104.894;2023-05-10T04:00:48;83465.56;;;17.74;37.54
70437;BME280;57877;39.750;-104.894;2023-05-10T04:03:14;83465.17;;;17.80;37.32
70437;BME280;57877;39.750;-104.894;2023-05-10T04:05:40;83467.76;;;17.31;37.72
70437;BME280;57877;39.750;-104.894;2023-05-10T04:08:06;83468.35;;;17.96;37.34
70437;BME280;57877;39.750;-104.894;2023-05-10T04:10:32;83470.02;;;17.40;38.60
70437;BME280;57877;39.750;-104.894;2023-05-10T04:12:58;83460.90;;;16.66;40.59
70437;BME280;57877;39.750;-104.894;2023-05-10T04:15:24;83459.49;;;17.34;39.47
70437;BME280;57877;39.750;-104.894;2023-05-10T04:17:50;83455.88;;;16.87;40.70
70437;BME280;57877;39.750;-104.894;2023-05-10T04:20:16;83445.73;;;16.98;40.85
70437;BME280;57877;39.750;-104.894;2023-05-10T04:22:43;83442.64;;;17.43;39.88
70437;BME280;57877;39.750;-104.894;2023-05-10T04:25:08;83439.04;;;17.52;39.47
70437;BME280;57877;39.750;-104.894;2023-05-10T04:27:34;83433.03;;;16.38;42.09
70437;BME280;57877;39.750;-104.894;2023-05-10T04:30:00;83428.54;;;16.73;41.71
70437;BME280;57877;39.750;-104.894;2023-05-10T04:32:25;83420.95;;;16.67;41.91
70437;BME280;57877;39.750;-104.894;2023-05-10T04:34:51;83416.15;;;17.08;41.11
70437;BME280;57877;39.750;-104.894;2023-05-10T04:37:17;83405.16;;;16.61;41.94
70437;BME280;57877;39.750;-104.894;2023-05-10T04:39:43;83403.38;;;16.68;41.02
70437;BME280;57877;39.750;-104.894;2023-05-10T04:42:09;83403.88;;;16.62;42.01
70437;BME280;57877;39.750;-104.894;2023-05-10T04:44:35;83394.32;;;16.50;41.21
70437;BME280;57877;39.750;-104.894;2023-05-10T04:47:01;83388.92;;;16.91;40.84
70437;BME280;57877;39.750;-104.894;2023-05-10T04:49:27;83383.72;;;16.44;41.08
70437;BME280;57877;39.750;-104.894;2023-05-10T04:51:53;83375.17;;;16.57;41.18
70437;BME280;57877;39.750;-104.894;2023-05-10T04:54:19;83374.10;;;16.25;41.25
70437;BME280;57877;39.750;-104.894;2023-05-10T04:56:45;83373.11;;;16.49;41.18
70437;BME280;57877;39.750;-104.894;2023-05-10T04:59:11;83374.32;;;16.10;41.51
70437;BME280;57877;39.750;-104.894;2023-05-10T05:01:37;83370.87;;;16.58;41.66
70437;BME280;57877;39.750;-104.894;2023-05-10T05:04:03;83372.78;;;16.18;42.15
70437;BME280;57877;39.750;-104.894;2023-05-10T05:06:29;83377.89;;;16.57;42.36
70437;BME280;57877;39.750;-104.894;2023-05-10T05:08:55;83378.43;;;16.30;43.16
70437;BME280;57877;39.750;-104.894;2023-05-10T05:11:21;83380.08;;;16.34;43.12
70437;BME280;57877;39.750;-104.894;2023-05-10T05:13:47;83378.32;;;16.08;44.11
70437;BME280;57877;39.750;-104.894;2023-05-10T05:16:13;83388.32;;;15.40;46.26
70437;BME280;57877;39.750;-104.894;2023-05-10T05:18:39;83382.51;;;16.04;44.75
70437;BME280;57877;39.750;-104.894;2023-05-10T05:23:31;83397.85;;;16.09;44.27
70437;BME280;57877;39.750;-104.894;2023-05-10T05:25:57;83405.51;;;15.68;44.48
70437;BME280;57877;39.750;-104.894;2023-05-10T05:28:23;83412.71;;;16.15;43.66
70437;BME280;57877;39.750;-104.894;2023-05-10T05:30:49;83420.82;;;16.39;42.38
70437;BME280;57877;39.750;-104.894;2023-05-10T05:33:15;83422.97;;;16.63;41.22
70437;BME280;57877;39.750;-104.894;2023-05-10T05:35:41;83425.11;;;16.93;41.17
70437;BME280;57877;39.750;-104.894;2023-05-10T05:38:07;83422.76;;;16.37;41.97
70437;BME280;57877;39.750;-104.894;2023-05-10T05:40:33;83421.11;;;16.26;42.10
70437;BME280;57877;39.750;-104.894;2023-05-10T05:42:59;83420.97;;;15.83;42.86
70437;BME280;57877;39.750;-104.894;2023-05-10T05:45:24;83423.19;;;16.10;43.21
70437;BME280;57877;39.750;-104.894;2023-05-10T05:47:50;83421.94;;;16.50;42.85
70437;BME280;57877;39.750;-104.894;2023-05-10T05:50:17;83424.25;;;16.38;42.56
70437;BME280;57877;39.750;-104.894;2023-05-10T05:52:42;83426.79;;;16.16;42.25
70437;BME280;57877;39.750;-104.894;2023-05-10T05:55:08;83432.25;;;16.60;41.36
70437;BME280;57877;39.750;-104.894;2023-05-10T05:57:34;83428.73;;;16.49;41.79
70437;BME280;57877;39.750;-104.894;2023-05-10T06:00:00;83430.13;;;17.39;40.15
70437;BME280;57877;39.750;-104.894;2023-05-10T06:02:26;83434.03;;;17.09;40.08
70437;BME280;57877;39.750;-104.894;2023-05-10T06:04:52;83438.61;;;17.41;40.35
70437;BME280;57877;39.750;-104.894;2023-05-10T06:07:18;83442.88;;;16.88;40.55
70437;BME280;57877;39.750;-104.894;2023-05-10T06:09:44;83444.94;;;17.61;39.15
70437;BME280;57877;39.750;-104.894;2023-05-10T06:12:10;83446.84;;;17.21;39.67
70437;BME280;57877;39.750;-104.894;2023-05-10T06:14:36;83448.34;;;17.59;39.17
70437;BME280;57877;39.750;-104.894;2023-05-10T06:17:02;83450.66;;;17.01;39.97
70437;BME280;57877;39.750;-104.894;2023-05-10T06:19:28;83447.36;;;17.33;39.40
70437;BME280;57877;39.750;-104.894;2023-05-10T06:21:54;83450.58;;;17.34;38.86
70437;BME280;57877;39.750;-104.894;2023-05-10T06:24:20;83448.27;;;17.41;38.61
70437;BME280;57877;39.750;-104.894;2023-05-10T06:26:46;83447.58;;;17.23;38.45
70437;BME280;57877;39.750;-104.894;2023-05-10T06:29:12;83449.23;;;17.39;38.28
70437;BME280;57877;39.750;-104.894;2023-05-10T06:31:38;83447.46;;;16.77;39.44
70437;BME280;57877;39.750;-104.894;2023-05-10T06:34:04;83444.41;;;16.91;39.63
70437;BME280;57877;39.750;-104.894;2023-05-10T06:36:30;83445.90;;;17.22;39.14
70437;BME280;57877;39.750;-104.894;2023-05-10T06:38:56;83443.10;;;17.20;39.21
70437;BME280;57877;39.750;-104.894;2023-05-10T06:41:22;83438.11;;;16.63;40.09
70437;BME280;57877;39.750;-104.894;2023-05-10T06:43:49;83434.39;;;16.33;40.73
70437;BME280;57877;39.750;-104.894;2023-05-10T06:46:14;83433.02;;;16.86;39.93
70437;BME280;57877;39.750;-104.894;2023-05-10T06:48:40;83438.64;;;16.98;39.55
70437;BME280;57877;39.750;-104.894;2023-05-10T06:51:06;83440.09;;;16.86;39.43
70437;BME280;57877;39.750;-104.894;2023-05-10T06:53:32;83437.79;;;17.02;39.65
70437;BME280;57877;39.750;-104.894;2023-05-10T06:55:58;83440.74;;;17.02;39.40
70437;BME280;57877;39.750;-104.894;2023-05-10T06:58:24;83439.30;;;17.58;38.51
70437;BME280;57877;39.750;-104.894;2023-05-10T07:00:50;83441.43;;;17.39;38.56
70437;BME280;57877;39.750;-104.894;2023-05-10T07:03:16;83445.53;;;16.65;40.53
70437;BME280;57877;39.750;-104.894;2023-05-10T07:05:42;83450.79;;;17.35;38.78
70437;BME280;57877;39.750;-104.894;2023-05-10T07:08:08;83457.75;;;17.65;38.58
70437;BME280;57877;39.750;-104.894;2023-05-10T07:10:34;83458.86;;;18.05;37.76
70437;BME280;57877;39.750;-104.894;2023-05-10T07:13:00;83462.66;;;18.18;37.59
70437;BME280;57877;39.750;-104.894;2023-05-10T07:15:26;83469.16;;;18.56;36.56
70437;BME280;57877;39.750;-104.894;2023-05-10T07:17:52;83470.47;;;18.14;36.83
70437;BME280;57877;39.750;-104.894;2023-05-10T07:20:18;83468.86;;;18.24;36.60
70437;BME280;57877;39.750;-104.894;2023-05-10T07:22:43;83472.75;;;18.64;36.80
70437;BME280;57877;39.750;-104.894;2023-05-10T07:25:09;83472.20;;;18.48;36.31
70437;BME280;57877;39.750;-104.894;2023-05-10T07:27:34;83472.47;;;18.68;36.00
70437;BME280;57877;39.750;-104.894;2023-05-10T07:29:59;83478.00;;;19.02;36.28
70437;BME280;57877;39.750;-104.894;2023-05-10T07:32:24;83477.22;;;18.23;36.82
70437;BME280;57877;39.750;-104.894;2023-05-10T07:34:50;83483.80;;;18.66;36.22
70437;BME280;57877;39.750;-104.894;2023-05-10T07:37:14;83482.99;;;17.15;38.75
70437;BME280;57877;39.750;-104.894;2023-05-10T07:39:39;83485.01;;;16.58;39.19
70437;BME280;57877;39.750;-104.894;2023-05-10T07:42:04;83486.21;;;16.55;39.69
70437;BME280;57877;39.750;-104.894;2023-05-10T07:44:29;83489.39;;;16.33;40.31
70437;BME280;57877;39.750;-104.894;2023-05-10T07:46:54;83486.77;;;16.56;39.32
70437;BME280;57877;39.750;-104.894;2023-05-10T07:49:20;83484.34;;;16.32;39.80
70437;BME280;57877;39.750;-104.894;2023-05-10T07:51:45;83484.48;;;16.20;40.39
70437;BME280;57877;39.750;-104.894;2023-05-10T07:54:09;83490.21;;;16.18;40.00
70437;BME280;57877;39.750;-104.894;2023-05-10T07:56:34;83491.97;;;14.84;42.17
70437;BME280;57877;39.750;-104.894;2023-05-10T07:59:00;83495.35;;;15.14;42.33
70437;BME280;57877;39.750;-104.894;2023-05-10T08:01:29;83490.74;;;13.32;45.65
70437;BME280;57877;39.750;-104.894;2023-05-10T08:03:52;83488.41;;;14.23;45.05
70437;BME280;57877;39.750;-104.894;2023-05-10T08:06:17;83486.56;;;13.89;45.74
70437;BME280;57877;39.750;-104.894;2023-05-10T08:08:42;83482.82;;;14.45;44.64
70437;BME280;57877;39.750;-104.894;2023-05-10T08:11:07;83486.23;;;14.95;44.87
70437;BME280;57877;39.750;-104.894;2023-05-10T08:13:32;83492.65;;;13.24;48.82
70437;BME280;57877;39.750;-104.894;2023-05-10T08:15:57;83507.60;;;14.22;45.91
70437;BME280;57877;39.750;-104.894;2023-05-10T08:18:22;83513.99;;;12.81;49.09
70437;BME280;57877;39.750;-104.894;2023-05-10T08:20:48;83515.20;;;12.52;49.39
70437;BME280;57877;39.750;-104.894;2023-05-10T08:23:14;83510.76;;;13.09;49.16
70437;BME280;57877;39.750;-104.894;2023-05-10T08:25:40;83508.49;;;12.89;48.95
70437;BME280;57877;39.750;-104.894;2023-05-10T08:28:05;83509.27;;;13.30;48.18
70437;BME280;57877;39.750;-104.894;2023-05-10T08:30:30;83508.59;;;13.19;48.88
70437;BME280;57877;39.750;-104.894;2023-05-10T08:32:55;83508.51;;;13.67;47.34
70437;BME280;57877;39.750;-104.894;2023-05-10T08:35:20;83510.62;;;14.33;46.28
70437;BME280;57877;39.750;-104.894;2023-05-10T08:37:45;83516.23;;;14.42;45.32
70437;BME280;57877;39.750;-104.894;2023-05-10T08:40:12;83522.02;;;13.41;46.92
70437;BME280;57877;39.750;-104.894;2023-05-10T08:42:36;83527.75;;;13.70;47.31
70437;BME280;57877;39.750;-104.894;2023-05-10T08:45:00;83530.68;;;13.18;46.93
70437;BME280;57877;39.750;-104.894;2023-05-10T08:47:25;83532.33;;;11.71;49.82
70437;BME280;57877;39.750;-104.894;2023-05-10T08:49:50;83531.82;;;13.39;47.36
70437;BME280;57877;39.750;-104.894;2023-05-10T08:52:16;83535.05;;;13.11;47.23
70437;BME280;57877;39.750;-104.894;2023-05-10T08:54:41;83533.33;;;13.69;45.83
70437;BME280;57877;39.750;-104.894;2023-05-10T08:57:06;83539.37;;;13.63;45.84
70437;BME280;57877;39.750;-104.894;2023-05-10T08:59:31;83539.05;;;13.41;46.07
70437;BME280;57877;39.750;-104.894;2023-05-10T09:01:59;83540.86;;;12.03;48.48
70437;BME280;57877;39.750;-104.894;2023-05-10T09:04:23;83536.32;;;12.36;48.36
70437;BME280;57877;39.750;-104.894;2023-05-10T09:06:47;83537.17;;;11.96;49.25
70437;BME280;57877;39.750;-104.894;2023-05-10T09:09:14;83538.66;;;12.58;48.33
70437;BME280;57877;39.750;-104.894;2023-05-10T09:11:38;83537.51;;;12.18;49.17
70437;BME280;57877;39.750;-104.894;2023-05-10T09:14:04;83546.68;;;11.96;49.88
70437;BME280;57877;39.750;-104.894;2023-05-10T09:16:30;83546.68;;;12.03;49.85
70437;BME280;57877;39.750;-104.894;2023-05-10T09:18:57;83548.72;;;11.90;50.14
70437;BME280;57877;39.750;-104.894;2023-05-10T09:23:47;83553.68;;;11.74;50.15
70437;BME280;57877;39.750;-104.894;2023-05-10T09:26:12;83555.34;;;12.09;49.75
70437;BME280;57877;39.750;-104.894;2023-05-10T09:31:02;83554.78;;;12.08;49.23
70437;BME280;57877;39.750;-104.894;2023-05-10T09:33:28;83554.27;;;12.53;47.59
70437;BME280;57877;39.750;-104.894;2023-05-10T09:35:53;83550.54;;;12.62;48.24
70437;BME280;57877;39.750;-104.894;2023-05-10T09:38:18;83546.96;;;13.52;47.00
70437;BME280;57877;39.750;-104.894;2023-05-10T09:40:50;83549.03;;;12.87;48.24
70437;BME280;57877;39.750;-104.894;2023-05-10T09:43:09;83546.90;;;13.04;47.47
70437;BME280;57877;39.750;-104.894;2023-05-10T09:45:35;83544.05;;;13.91;45.43
70437;BME280;57877;39.750;-104.894;2023-05-10T09:48:00;83544.07;;;13.81;45.15
70437;BME280;57877;39.750;-104.894;2023-05-10T09:50:26;83541.02;;;14.16;44.54
70437;BME280;57877;39.750;-104.894;2023-05-10T09:52:53;83543.43;;;14.35;44.00
70437;BME280;57877;39.750;-104.894;2023-05-10T09:55:15;83541.74;;;14.08;44.96
70437;BME280;57877;39.750;-104.894;2023-05-10T09:57:40;83544.37;;;13.39;45.44
70437;BME280;57877;39.750;-104.894;2023-05-10T10:00:06;83542.72;;;13.47;46.04
70437;BME280;57877;39.750;-104.894;2023-05-10T10:02:31;83540.59;;;13.39;46.16
70437;BME280;57877;39.750;-104.894;2023-05-10T10:04:57;83539.06;;;13.29;46.67
70437;BME280;57877;39.750;-104.894;2023-05-10T10:07:24;83544.97;;;13.09;47.42
70437;BME280;57877;39.750;-104.894;2023-05-10T10:09:48;83550.75;;;13.94;46.05
70437;BME280;57877;39.750;-104.894;2023-05-10T10:12:14;83558.13;;;13.86;46.02
70437;BME280;57877;39.750;-104.894;2023-05-10T10:14:39;83563.29;;;13.73;46.98
70437;BME280;57877;39.750;-104.894;2023-05-10T10:17:04;83561.57;;;12.87;47.49
70437;BME280;57877;39.750;-104.894;2023-05-10T10:19:30;83559.01;;;12.21;49.06
70437;BME280;57877;39.750;-104.894;2023-05-10T10:21:54;83556.99;;;13.23;47.53
70437;BME280;57877;39.750;-104.894;2023-05-10T10:24:20;83556.69;;;13.47;46.58
70437;BME280;57877;39.750;-104.894;2023-05-10T10:26:45;83555.74;;;12.61;48.71
70437;BME280;57877;39.750;-104.894;2023-05-10T10:29:20;83559.17;;;12.58;48.85
70437;BME280;57877;39.750;-104.894;2023-05-10T10:31:44;83559.82;;;12.53;50.01
70437;BME280;57877;39.750;-104.894;2023-05-10T10:34:06;83561.76;;;12.72;48.64
70437;BME280;57877;39.750;-104.894;2023-05-10T10:36:26;83564.05;;;12.92;47.76
70437;BME280;57877;39.750;-104.894;2023-05-10T10:38:57;83566.91;;;13.30;46.20
70437;BME280;57877;39.750;-104.894;2023-05-10T10:43:42;83567.72;;;11.97;48.31
70437;BME280;57877;39.750;-104.894;2023-05-10T10:46:12;83566.22;;;12.77;47.38
70437;BME280;57877;39.750;-104.894;2023-05-10T10:48:32;83565.32;;;13.55;45.26
70437;BME280;57877;39.750;-104.894;2023-05-10T10:50:58;83570.04;;;12.97;46.60
70437;BME280;57877;39.750;-104.894;2023-05-10T10:53:27;83574.24;;;13.54;44.69
70437;BME280;57877;39.750;-104.894;2023-05-10T10:55:51;83581.05;;;13.00;46.12
70437;BME280;57877;39.750;-104.894;2023-05-10T10:58:28;83578.02;;;12.64;46.58
70437;BME280;57877;39.750;-104.894;2023-05-10T11:00:42;83578.04;;;13.06;45.35
70437;BME280;57877;39.750;-104.894;2023-05-10T11:03:10;83576.12;;;13.80;43.94
70437;BME280;57877;39.750;-104.894;2023-05-10T11:05:38;83577.54;;;14.43;42.84
70437;BME280;57877;39.750;-104.894;2023-05-10T11:08:06;83576.42;;;13.52;44.43
70437;BME280;57877;39.750;-104.894;2023-05-10T11:10:27;83572.05;;;13.17;44.38
70437;BME280;57877;39.750;-104.894;2023-05-10T11:12:55;83572.96;;;12.93;45.52
70437;BME280;57877;39.750;-104.894;2023-05-10T11:15:18;83574.04;;;12.27;46.61
70437;BME280;57877;39.750;-104.894;2023-05-10T11:17:44;83573.83;;;13.54;44.21
70437;BME280;57877;39.750;-104.894;2023-05-10T11:20:10;83574.98;;;13.27;44.21
70437;BME280;57877;39.750;-104.894;2023-05-10T11:25:01;83572.52;;;13.62;44.19
70437;BME280;57877;39.750;-104.894;2023-05-10T11:27:27;83572.26;;;13.59;45.32
70437;BME280;57877;39.750;-104.894;2023-05-10T11:29:53;83574.82;;;14.08;44.85
70437;BME280;57877;39.750;-104.894;2023-05-10T11:32:20;83578.45;;;13.51;46.19
70437;BME280;57877;39.750;-104.894;2023-05-10T11:34:48;83581.71;;;13.39;45.38
70437;BME280;57877;39.750;-104.894;2023-05-10T11:37:11;83585.20;;;13.51;45.08
70437;BME280;57877;39.750;-104.894;2023-05-10T11:39:37;83585.47;;;13.74;44.94
70437;BME280;57877;39.750;-104.894;2023-05-10T11:42:03;83580.79;;;13.32;45.58
70437;BME280;57877;39.750;-104.894;2023-05-10T11:44:30;83573.81;;;12.21;48.35
70437;BME280;57877;39.750;-104.894;2023-05-10T11:46:58;83573.67;;;12.55;48.03
70437;BME280;57877;39.750;-104.894;2023-05-10T11:49:23;83576.35;;;13.08;48.48
70437;BME280;57877;39.750;-104.894;2023-05-10T11:51:47;83576.39;;;12.39;49.48
70437;BME280;57877;39.750;-104.894;2023-05-10T11:54:12;83582.71;;;12.47;48.99
70437;BME280;57877;39.750;-104.894;2023-05-10T11:56:38;83587.24;;;12.52;50.11
70437;BME280;57877;39.750;-104.894;2023-05-10T11:59:04;83589.70;;;12.45;50.32
70437;BME280;57877;39.750;-104.894;2023-05-10T12:01:31;83590.53;;;12.12;50.37
70437;BME280;57877;39.750;-104.894;2023-05-10T12:03:58;83588.80;;;12.35;49.32
70437;BME280;57877;39.750;-104.894;2023-05-10T12:06:25;83592.54;;;12.33;50.68
70437;BME280;57877;39.750;-104.894;2023-05-10T12:08:49;83585.46;;;12.82;49.85
70437;BME280;57877;39.750;-104.894;2023-05-10T12:11:14;83586.29;;;13.00;48.02
70437;BME280;57877;39.750;-104.894;2023-05-10T12:13:41;83584.88;;;13.17;48.12
70437;BME280;57877;39.750;-104.894;2023-05-10T12:16:14;83587.03;;;13.68;49.81
70437;BME280;57877;39.750;-104.894;2023-05-10T12:18:32;83588.41;;;13.16;50.46
70437;BME280;57877;39.750;-104.894;2023-05-10T12:21:03;83587.90;;;12.12;51.43
70437;BME280;57877;39.750;-104.894;2023-05-10T12:23:24;83591.11;;;12.57;50.89
70437;BME280;57877;39.750;-104.894;2023-05-10T12:25:50;83591.19;;;12.71;49.50
70437;BME280;57877;39.750;-104.894;2023-05-10T12:28:19;83593.64;;;13.38;47.87
70437;BME280;57877;39.750;-104.894;2023-05-10T12:30:42;83594.79;;;13.54;47.46
70437;BME280;57877;39.750;-104.894;2023-05-10T12:33:10;83598.72;;;12.86;48.45
70437;BME280;57877;39.750;-104.894;2023-05-10T12:35:32;83601.98;;;13.00;48.52
70437;BME280;57877;39.750;-104.894;2023-05-10T12:37:58;83607.35;;;12.84;48.29